TimeMDT,TemperatureF,Dew PointF,Humidity,Sea Level PressureIn,VisibilityMPH,Wind Direction,Wind SpeedMPH,Gust SpeedMPH,PrecipitationIn,Events,Conditions,WindDirDegrees,DateUTC
12:53 AM,21.0,5.0,50,30.30,10.0,NW,9.2,-,N/A,,Partly Cloudy,320,2013-03-24 06:53:00
1:53 AM,19.0,6.1,57,30.30,10.0,WNW,10.4,-,N/A,,Clear,290,2013-03-24 07:53:00
2:53 AM,18.0,8.1,65,30.30,10.0,WNW,10.4,-,N/A,,Clear,300,2013-03-24 08:53:00
3:53 AM,19.0,8.1,62,30.29,10.0,WNW,11.5,-,N/A,,Partly Cloudy,300,2013-03-24 09:53:00
4:53 AM,18.0,8.1,65,30.30,10.0,NW,8.1,-,N/A,,Partly Cloudy,310,2013-03-24 10:53:00
5:53 AM,17.1,8.1,68,30.31,10.0,West,6.9,-,N/A,,Overcast,280,2013-03-24 11:53:00
6:53 AM,17.1,8.1,68,30.32,10.0,WNW,9.2,-,N/A,,Overcast,290,2013-03-24 12:53:00
7:53 AM,17.1,8.1,68,30.33,10.0,WNW,9.2,-,N/A,,Clear,290,2013-03-24 13:53:00
8:53 AM,19.9,9.0,62,30.34,10.0,WNW,3.5,-,N/A,,Clear,300,2013-03-24 14:53:00
9:53 AM,26.1,7.0,44,30.32,10.0,NNW,13.8,-,N/A,,Clear,340,2013-03-24 15:53:00
10:53 AM,27.0,7.0,43,30.33,10.0,NNW,13.8,17.3,N/A,,Scattered Clouds,330,2013-03-24 16:53:00
11:53 AM,30.0,6.1,36,30.32,10.0,NNW,15.0,26.5,N/A,,Scattered Clouds,340,2013-03-24 17:53:00
12:53 PM,30.9,3.9,32,30.31,10.0,North,16.1,31.1,N/A,,Scattered Clouds,360,2013-03-24 18:53:00
1:53 PM,30.9,3.0,31,30.31,10.0,NNW,25.3,36.8,N/A,,Partly Cloudy,340,2013-03-24 19:53:00
2:53 PM,32.0,3.0,29,30.30,10.0,North,17.3,28.8,N/A,,Overcast,350,2013-03-24 20:53:00
3:53 PM,32.0,3.9,31,30.30,10.0,NNW,18.4,31.1,N/A,,Overcast,340,2013-03-24 21:53:00
4:53 PM,32.0,3.9,31,30.30,10.0,NNW,20.7,26.5,N/A,,Clear,340,2013-03-24 22:53:00
5:53 PM,32.0,3.0,29,30.30,10.0,North,17.3,24.2,N/A,,Clear,350,2013-03-24 23:53:00
6:53 PM,30.0,3.0,32,30.31,10.0,North,17.3,24.2,N/A,,Clear,350,2013-03-25 00:53:00
7:53 PM,28.0,3.0,34,30.32,10.0,NNW,12.7,-,N/A,,Clear,330,2013-03-25 01:53:00
8:53 PM,26.1,3.9,39,30.33,10.0,WNW,10.4,-,N/A,,Clear,290,2013-03-25 02:53:00
9:53 PM,25.0,3.9,41,30.32,10.0,NW,8.1,-,N/A,,Clear,310,2013-03-25 03:53:00
10:53 PM,21.9,5.0,48,30.33,10.0,WNW,8.1,-,N/A,,Clear,290,2013-03-25 04:53:00
11:53 PM,19.9,3.9,50,30.34,10.0,North,5.8,-,N/A,,Clear,350,2013-03-25 05:53:00